Malilla, Sweden

4:25 AM CEST on August 30, 2015 (GMT +0200)
IKORSBER2 | | Change Station
CLOSE
Current Station
Personal Weather Station
Location: Korsberga, KORSBERGA
Elevation: 620 ft
Nearby Weather Stations

Elev 620 ft 57.31 °N, 15.24 °E | Updated 10 seconds ago

Clear
Clear
56.5 °F
Feels Like 56.5 °F
N
0.0
Wind Variable Wind from North
Gusts 0.0 mph

Today
High -- | Low -- °F
--% Chance of Precip.
Yesterday
High -- | Low -- °F
Precip. -- in
5:52 AM 8:00 PM
Full, 100% visible
Pressure 30.15 in
Visibility 6.2 miles
Clouds
Dew Point 50 °F
Humidity 78%
Rainfall 0.00 in
Snow Depth Not available.
UV Not available.
Pollen Not available.
Air Quality Not available.
Flu Activity Not available.
METAR ESMQ 300220Z AUTO 19002KT 9999 NCD 12/11 Q1021
Pressure 30.15 in
Visibility 6.2 miles
Clouds
Dew Point 50 °F
Humidity 78%
Rainfall 0.00 in
Snow Depth Not available.
UV Not available.
Pollen Not available.
Air Quality Not available.
Flu Activity Not available.
METAR ESMQ 300220Z AUTO 19002KT 9999 NCD 12/11 Q1021

10-Day Weather Forecast

×

Almanac

Astronomy

Aug. 30, 2015 Rise Set
Actual Time
Civil Twilight
Nautical Twilight
Astronomical Twilight
Moon
Length of Visible Light
Length of Day
Tomorrow will be .
, % of the Moon is Illuminated

Today's Extremes

Country Highs Country Lows

Community

WunderPhotos

Upload Photos

1,850,850 photos uploaded!

WunderBlogs® & News

Nearby

Air Quality

  Air Quality AQ Index Pollutant
Not available.

Snow Depth

Station Depth Elevation

Earthquake Activity

City Distance Mag. Time & Date
Minimum magnitude displayed is 2.5.

Coastal Water Temperatures

Place Temperature

Stations

Nearby Weather Stations

Station Location Temp. Windchill Dew Point Humidity Wind Precip. Elev Updated Type